Kapaa, HI

2:25 AM HST on July 30, 2014 (GMT -1000)
Wailua (KHIKAPAA4) Elev 355 ft | 22.07 °N, 159.37 °W | Change Station

Current weather conditions updated 28 seconds ago

Partly Cloudy
Partly Cloudy
70.0 °F
Feels Like 70.0 °F
N
0.0
Wind Variable Wind from West
Gusts 1.6 mph

Today is forecast to be Cooler than yesterday.

Today
High -- | Low -- °F
--% Chance of Precip.
Yesterday
High -- | Low -- °F
Precip. -- in
6:08 AM 7:18 PM
Waxing Crescent, 11% visible
Pressure 30.04 in
Visibility 10.0 miles
Clouds Few 2600 ft
Dew Point 68 °F
Humidity 93%
Rainfall 0.00 in
Snow Depth Not available.
UV 0 out of 12
Pollen Not available.
Air Quality Not available.
Flu Activity Not available.
METAR PHLI 301153Z 07010KT 10SM FEW026 25/19 A3005 RMK AO2 SLP173 T02500189 10261 20250 58008

More Conditions Fewer Conditions

Pressure 30.04 in
Visibility 10.0 miles
Clouds Few 2600 ft
Dew Point 68 °F
Humidity 93%
Rainfall 0.00 in
Snow Depth Not available.
UV 0 out of 12
Pollen Not available.
Air Quality Not available.
Flu Activity Not available.
METAR PHLI 301153Z 07010KT 10SM FEW026 25/19 A3005 RMK AO2 SLP173 T02500189 10261 20250 58008

More Conditions Fewer Conditions

10-Day Weather Forecast

Almanac

Astronomy

Jul. 30, 2014 Rise Set
Actual Time 6:08 AM HST 7:18 PM HST
Civil Twilight 5:44 AM HST 7:42 PM HST
Nautical Twilight 5:16 AM HST 8:10 PM HST
Astronomical Twilight 4:47 AM HST 8:39 PM HST
Moon 9:19 AM HST 9:42 PM HST
Length of Visible Light 13h 57m
Length of Day
13h 09m
Tomorrow will be 0m 56s shorter.
Waxing Crescent, 11% of the Moon is Illuminated
Today
Waxing Crescent
Aug 3
First Quarter
Aug 10
Full
Aug 17
Last Quarter
Aug 25
New

Today's Extremes

State Highs State Lows

Community

WunderPhotos

Upload Photos

1,739,054 photos uploaded!

Nearby

Snow Depth

Station Depth Elevation
No new snow has been reported.

Earthquake Activity

City Distance Mag. Time & Date
No recent earthquake activity has been reported nearby.
Minimum magnitude displayed is 2.5.

Coastal Water Temperatures

Place Temperature
No Stations Reporting

Nearby Weather Stations

Station Location Temp. Heat Index Dew Point Humidity Wind Precip. Elev Updated Type
Wailua, Kapaa, HI 70.0 °F - 68 °F 93% West  at  0.0 mph 0.00 in / hr 355 ft 2:24 AM HST Rapid Fire
Lihue, Lihue, HI 73.4 °F 72 °F 70 °F 87% North  at  3.1 mph 0.00 in / hr 342 ft 1:41 AM HST Normal
Kalihiwai Ridge, Kilauea, HI 70.9 °F - 69 °F 94% SE  at  0.0 mph 0.00 in / hr 300 ft 2:24 AM HST Rapid Fire
Pooku, Princeville, HI 71.5 °F 70 °F 67 °F 85% South  at  0.0 mph 0.00 in / hr 480 ft 2:25 AM HST Rapid Fire
Na Pali Properties on Kauai, Hanalei, HI 70.9 °F 72 °F 64 °F 79% SE  at  2.9 mph 0.00 in / hr 36 ft 2:25 AM HST Rapid Fire
North Shore of Kauai, Princeville, HI 70.0 °F - 67 °F 89% SE  at  4.9 mph 0.00 in / hr 200 ft 2:25 AM HST Rapid Fire
Koloa Landing - Whaler's Cove, Koloa, HI 75.2 °F 76 °F 69 °F 80% SSE  at  0.0 mph 0.00 in / hr 25 ft 2:22 AM HST Rapid Fire

Show More Stations Show Fewer Stations